Time;durP1;ratioP1;P1;durP2;ratioP2;P2;SDS_P1;SDS_P2;PMS_P1;PMS_P2;Temp;Humidity;BMP_temperature;BMP_pressure;BME280_temperature;BME280_humidity;BME280_pressure;Samples;Min_cycle;Max_cycle;Signal;HPM_P1;HPM_P2
2023/07/07 00:01:04;;;;;;;4.55;2.10;;;14.80;99.90;;;;;;4954405;28;20063;-65
2023/07/07 00:03:30;;;;;;;4.82;1.98;;;14.70;99.90;;;;;;4953610;29;20090;-65
2023/07/07 00:05:56;;;;;;;4.85;2.10;;;14.70;99.90;;;;;;4937534;29;20043;-64
2023/07/07 00:08:22;;;;;;;4.93;2.08;;;14.70;99.90;;;;;;4956431;28;20118;-65
2023/07/07 00:10:48;;;;;;;4.32;1.90;;;14.60;99.90;;;;;;4958573;28;20539;-66
2023/07/07 00:13:15;;;;;;;7.47;2.67;;;14.60;99.90;;;;;;4957293;29;20039;-65
2023/07/07 00:15:44;;;;;;;5.45;2.20;;;14.60;99.90;;;;;;4957117;29;20454;-65
2023/07/07 00:18:27;;;;;;;6.43;2.50;;;14.50;99.90;;;;;;4956907;29;20051;-65
2023/07/07 00:20:54;;;;;;;4.47;1.90;;;14.40;99.90;;;;;;4940945;29;20051;-65
2023/07/07 00:23:20;;;;;;;6.00;2.40;;;14.30;99.90;;;;;;4958237;28;20109;-65
2023/07/07 00:26:07;;;;;;;4.03;2.05;;;14.30;99.90;;;;;;4957066;29;20483;-65
2023/07/07 00:28:33;;;;;;;4.88;2.03;;;14.30;99.90;;;;;;4957917;28;20039;-66
2023/07/07 00:30:59;;;;;;;6.65;2.95;;;14.20;99.90;;;;;;4956890;29;20043;-65
2023/07/07 00:33:26;;;;;;;7.90;3.50;;;14.20;99.90;;;;;;4956693;29;20039;-65
2023/07/07 00:35:52;;;;;;;8.82;3.92;;;14.10;99.90;;;;;;4957906;28;20044;-65
2023/07/07 00:38:18;;;;;;;6.22;2.78;;;14.10;99.90;;;;;;4924821;29;20097;-65
2023/07/07 00:40:45;;;;;;;6.38;3.10;;;14.00;99.90;;;;;;4958006;28;20043;-66
2023/07/07 00:43:16;;;;;;;5.88;2.55;;;13.90;99.90;;;;;;4957986;28;20127;-65
2023/07/07 00:45:42;;;;;;;7.30;2.37;;;13.90;99.90;;;;;;4957834;28;20111;-65
2023/07/07 00:48:14;;;;;;;7.53;3.50;;;13.80;99.90;;;;;;4957431;28;20039;-66
2023/07/07 00:50:51;;;;;;;9.50;5.18;;;13.80;99.90;;;;;;4957603;28;20054;-65
2023/07/07 00:53:18;;;;;;;8.73;5.65;;;13.90;99.90;;;;;;4957881;28;20607;-64
2023/07/07 00:55:49;;;;;;;10.77;6.22;;;13.90;99.90;;;;;;4957374;28;20118;-65
2023/07/07 00:58:19;;;;;;;11.93;7.22;;;13.90;99.90;;;;;;4956354;29;20043;-64
2023/07/07 01:00:50;;;;;;;13.55;7.55;;;14.00;99.90;;;;;;4956068;29;20138;-64
2023/07/07 01:03:25;;;;;;;11.07;7.07;;;14.00;99.90;;;;;;4957260;28;20051;-65
2023/07/07 01:05:55;;;;;;;12.18;7.85;;;14.00;99.90;;;;;;4957625;28;20126;-64
2023/07/07 01:08:22;;;;;;;14.23;8.50;;;14.00;99.90;;;;;;4956039;29;20051;-64
2023/07/07 01:10:47;;;;;;;11.65;8.30;;;14.00;99.90;;;;;;4957350;28;20047;-64
2023/07/07 01:13:14;;;;;;;12.35;9.00;;;14.00;99.90;;;;;;4957484;28;20039;-64
2023/07/07 01:15:56;;;;;;;14.05;9.85;;;13.90;99.90;;;;;;4939911;29;20051;-64
2023/07/07 01:18:38;;;;;;;13.30;9.68;;;13.90;99.90;;;;;;4955864;28;20078;-64
2023/07/07 01:21:29;;;;;;;19.20;10.75;;;14.00;99.90;;;;;;4956166;29;20121;-64
2023/07/07 01:24:30;;;;;;;16.42;10.70;;;14.00;99.90;;;;;;4955730;29;20070;-65
2023/07/07 01:27:29;;;;;;;15.20;10.90;;;14.10;99.90;;;;;;4956954;28;20043;-64
2023/07/07 01:30:04;;;;;;;14.63;10.50;;;14.10;99.90;;;;;;4955593;29;20047;-64
2023/07/07 01:32:31;;;;;;;17.00;11.63;;;14.00;99.90;;;;;;4955606;29;20054;-64
2023/07/07 01:35:07;;;;;;;14.73;11.52;;;14.00;99.90;;;;;;4957075;28;20051;-64
2023/07/07 01:37:33;;;;;;;17.80;12.27;;;14.00;99.90;;;;;;4957073;28;20502;-65
2023/07/07 01:40:00;;;;;;;18.25;12.88;;;14.10;99.90;;;;;;4956742;28;20074;-65
2023/07/07 01:42:49;;;;;;;18.50;12.93;;;14.20;99.90;;;;;;4956693;28;20503;-65
2023/07/07 01:45:21;;;;;;;15.70;11.52;;;14.20;99.90;;;;;;4956908;28;20039;-65
2023/07/07 01:47:51;;;;;;;;;;;14.10;99.90;;;;;;4956864;28;20043;-65
2023/07/07 01:50:27;;;;;;;20.80;13.80;;;14.10;99.90;;;;;;4955518;29;20374;-65
2023/07/07 01:52:57;;;;;;;17.73;12.65;;;14.10;99.90;;;;;;4955609;29;20062;-66
2023/07/07 01:55:24;;;;;;;17.95;13.00;;;14.00;99.90;;;;;;4955105;29;20039;-66
2023/07/07 01:57:54;;;;;;;18.95;13.75;;;14.10;99.90;;;;;;4955429;29;20567;-64
2023/07/07 02:00:22;;;;;;;20.50;14.27;;;14.20;99.90;;;;;;4954846;29;20123;-64
2023/07/07 02:02:48;;;;;;;21.35;14.65;;;14.10;99.90;;;;;;4956249;29;20056;-64
2023/07/07 02:05:14;;;;;;;18.35;14.45;;;14.20;99.90;;;;;;4956596;28;20480;-64
2023/07/07 02:07:40;;;;;;;18.15;14.13;;;14.10;99.90;;;;;;4955056;29;20044;-65
2023/07/07 02:10:06;;;;;;;19.25;13.63;;;14.10;99.90;;;;;;4939014;29;20043;-64
2023/07/07 02:12:32;;;;;;;16.95;13.70;;;14.00;99.90;;;;;;4954912;29;20047;-65
2023/07/07 02:14:57;;;;;;;19.45;14.85;;;14.00;99.90;;;;;;4956321;28;20447;-65
2023/07/07 02:17:24;;;;;;;17.55;13.05;;;14.00;99.90;;;;;;4955070;29;20500;-64
2023/07/07 02:19:50;;;;;;;18.95;13.85;;;14.00;99.90;;;;;;4954738;29;20062;-64
2023/07/07 02:22:16;;;;;;;17.17;12.80;;;14.00;99.90;;;;;;4954586;29;20047;-64
2023/07/07 02:24:42;;;;;;;17.20;13.60;;;14.00;99.90;;;;;;4954626;29;20035;-65
2023/07/07 02:27:10;;;;;;;19.90;13.95;;;14.00;99.90;;;;;;4954887;29;20376;-65
2023/07/07 02:29:37;;;;;;;20.30;13.77;;;14.10;99.90;;;;;;4955127;29;20055;-65
2023/07/07 02:32:04;;;;;;;17.58;13.18;;;14.10;99.90;;;;;;4954189;28;20043;-65
2023/07/07 02:34:29;;;;;;;18.30;13.73;;;14.10;99.90;;;;;;4956037;28;20047;-65
2023/07/07 02:36:55;;;;;;;20.13;13.60;;;14.10;99.90;;;;;;4954686;29;20090;-65
2023/07/07 02:39:21;;;;;;;19.05;13.88;;;14.10;99.90;;;;;;4955639;28;20039;-65
2023/07/07 02:41:47;;;;;;;17.45;13.20;;;14.10;99.90;;;;;;4955602;28;20492;-65
2023/07/07 02:44:13;;;;;;;17.85;13.57;;;14.00;99.90;;;;;;4954273;29;20047;-65
2023/07/07 02:46:39;;;;;;;18.35;13.82;;;14.00;99.90;;;;;;4954622;29;20082;-65
2023/07/07 02:49:05;;;;;;;18.83;14.10;;;14.00;99.90;;;;;;4954561;29;20035;-65
2023/07/07 02:51:31;;;;;;;19.98;14.23;;;14.00;99.90;;;;;;4955462;28;20513;-65
2023/07/07 02:53:57;;;;;;;17.70;13.88;;;14.00;99.90;;;;;;4954231;29;20490;-65
2023/07/07 02:56:23;;;;;;;19.10;14.68;;;13.90;99.90;;;;;;4955589;28;20093;-65
2023/07/07 02:58:49;;;;;;;18.35;13.65;;;13.90;99.90;;;;;;4955416;28;20554;-65
2023/07/07 03:01:19;;;;;;;19.23;14.00;;;13.90;99.90;;;;;;4954064;29;20117;-65
2023/07/07 03:03:48;;;;;;;19.33;14.13;;;13.90;99.90;;;;;;4955207;28;20047;-65
2023/07/07 03:06:20;;;;;;;19.08;14.25;;;13.80;99.90;;;;;;4955588;28;20039;-65
2023/07/07 03:08:46;;;;;;;19.45;14.13;;;13.80;99.90;;;;;;4955463;28;20046;-65
2023/07/07 03:11:14;;;;;;;18.98;14.40;;;13.80;99.90;;;;;;4954203;29;20043;-65
2023/07/07 03:13:40;;;;;;;20.60;14.82;;;13.80;99.90;;;;;;4954923;28;20093;-65
2023/07/07 03:16:12;;;;;;;18.23;14.00;;;13.80;99.90;;;;;;4955336;28;20129;-65
2023/07/07 03:18:41;;;;;;;17.20;13.65;;;13.90;99.90;;;;;;4955382;28;20058;-65
2023/07/07 03:21:08;;;;;;;17.15;13.25;;;13.90;99.90;;;;;;4953842;29;20039;-65
2023/07/07 03:23:35;;;;;;;18.15;13.75;;;13.80;99.90;;;;;;4955158;28;20047;-65
2023/07/07 03:26:13;;;;;;;18.13;13.93;;;13.90;99.90;;;;;;4954076;29;20511;-65
2023/07/07 03:28:38;;;;;;;18.17;13.75;;;13.90;99.90;;;;;;4953942;29;20492;-65
2023/07/07 03:31:10;;;;;;;17.55;13.05;;;13.80;99.90;;;;;;4955012;28;20035;-66
2023/07/07 03:33:37;;;;;;;16.08;13.65;;;13.80;99.90;;;;;;4953672;29;20047;-65
2023/07/07 03:36:04;;;;;;;20.17;14.32;;;13.90;99.90;;;;;;4954930;28;20048;-64
2023/07/07 03:38:30;;;;;;;18.88;13.65;;;13.90;99.90;;;;;;4954932;28;20047;-64
2023/07/07 03:40:56;;;;;;;19.35;14.45;;;13.90;99.90;;;;;;4954821;28;20047;-64
2023/07/07 03:43:22;;;;;;;18.92;14.82;;;14.00;99.90;;;;;;4958331;28;20051;-64
2023/07/07 03:45:47;;;;;;;20.42;14.80;;;13.90;99.90;;;;;;4957588;29;20039;-64
2023/07/07 03:48:13;;;;;;;18.90;14.68;;;14.00;99.90;;;;;;4958827;28;20098;-64
2023/07/07 03:50:39;;;;;;;21.38;15.77;;;13.90;99.90;;;;;;4941688;29;20399;-64
2023/07/07 03:53:05;;;;;;;22.40;15.20;;;13.90;99.90;;;;;;4957650;29;20050;-65
2023/07/07 03:55:31;;;;;;;17.65;14.40;;;13.80;99.90;;;;;;4959021;28;20538;-65
2023/07/07 03:57:57;;;;;;;20.17;15.75;;;13.80;99.90;;;;;;4941352;29;20146;-65
2023/07/07 04:00:23;;;;;;;23.75;16.90;;;13.80;99.90;;;;;;4957105;29;20090;-65
2023/07/07 04:02:49;;;;;;;17.38;13.70;;;13.80;99.90;;;;;;4958500;28;20519;-65
2023/07/07 04:05:14;;;;;;;16.55;13.05;;;13.70;99.90;;;;;;4958426;28;20079;-65
2023/07/07 04:07:40;;;;;;;19.05;15.80;;;13.70;99.90;;;;;;4925576;29;20126;-65
2023/07/07 04:10:07;;;;;;;18.75;14.88;;;13.60;99.90;;;;;;4957000;29;20051;-65
2023/07/07 04:12:34;;;;;;;15.25;12.55;;;13.60;99.90;;;;;;4957104;29;20051;-66
2023/07/07 04:15:00;;;;;;;18.40;13.95;;;13.60;99.90;;;;;;4958312;28;20043;-66
2023/07/07 04:17:26;;;;;;;17.13;13.65;;;13.60;99.90;;;;;;4957003;29;20047;-65
2023/07/07 04:19:53;;;;;;;17.77;14.38;;;13.60;99.90;;;;;;4958173;28;20040;-66
2023/07/07 04:22:19;;;;;;;19.33;14.82;;;13.60;99.90;;;;;;4925207;29;20496;-65
2023/07/07 04:24:44;;;;;;;20.08;14.00;;;13.70;99.90;;;;;;4957038;29;20240;-67
2023/07/07 04:27:10;;;;;;;18.60;14.02;;;13.60;99.90;;;;;;4958042;28;20039;-67
2023/07/07 04:29:36;;;;;;;17.88;14.82;;;13.60;99.90;;;;;;4956785;29;20047;-66
2023/07/07 04:32:03;;;;;;;21.15;14.70;;;13.70;99.90;;;;;;4956631;29;20062;-66
2023/07/07 04:34:30;;;;;;;17.75;14.88;;;13.70;99.90;;;;;;4958237;28;20047;-66
2023/07/07 04:36:56;;;;;;;17.40;14.05;;;13.70;99.90;;;;;;4941106;29;20046;-65
2023/07/07 04:39:22;;;;;;;19.35;15.30;;;13.70;99.90;;;;;;4956587;29;20050;-68
2023/07/07 04:41:50;;;;;;;19.52;14.65;;;13.90;99.90;;;;;;4957734;28;20039;-64
2023/07/07 04:44:16;;;;;;;17.63;14.25;;;14.00;99.90;;;;;;4957830;28;20047;-66
2023/07/07 04:46:42;;;;;;;18.15;14.02;;;14.10;99.90;;;;;;4956784;29;20109;-65
2023/07/07 04:49:08;;;;;;;17.60;14.02;;;14.30;99.90;;;;;;4956459;29;20050;-65
2023/07/07 04:51:40;;;;;;;17.58;13.38;;;14.50;99.90;;;;;;4956646;29;20035;-65
2023/07/07 04:54:10;;;;;;;18.38;14.27;;;14.70;99.90;;;;;;4957226;28;20085;-65
2023/07/07 04:56:36;;;;;;;17.33;12.90;;;14.90;99.90;;;;;;4956270;29;20093;-64
2023/07/07 04:59:02;;;;;;;16.63;13.20;;;15.10;99.90;;;;;;4957831;28;20122;-64
2023/07/07 05:01:29;;;;;;;15.63;12.68;;;15.40;99.90;;;;;;4957374;28;20059;-65
2023/07/07 05:03:58;;;;;;;14.77;11.90;;;15.80;99.90;;;;;;4956334;29;20047;-65
2023/07/07 05:06:26;;;;;;;17.98;11.57;;;16.40;99.90;;;;;;4956700;29;20062;-65
2023/07/07 05:08:52;;;;;;;13.80;11.02;;;16.90;99.90;;;;;;4957567;28;20039;-65
2023/07/07 05:11:20;;;;;;;13.68;10.25;;;17.50;99.90;;;;;;4956086;29;20065;-65
2023/07/07 05:13:48;;;;;;;14.82;9.93;;;17.80;99.90;;;;;;4957471;28;20146;-65
2023/07/07 05:16:19;;;;;;;14.75;10.00;;;18.10;99.90;;;;;;4940343;29;20103;-64
2023/07/07 05:18:45;;;;;;;12.90;9.23;;;18.40;99.90;;;;;;4957213;28;20090;-64
2023/07/07 05:21:13;;;;;;;15.38;9.32;;;19.00;99.90;;;;;;4956051;29;20039;-64
2023/07/07 05:23:39;;;;;;;12.98;8.93;;;18.90;99.90;;;;;;4955703;29;20039;-64
2023/07/07 05:26:05;;;;;;;13.38;8.60;;;19.00;99.90;;;;;;4957283;28;20046;-64
2023/07/07 05:28:32;;;;;;;13.15;8.60;;;19.30;99.90;;;;;;4955628;29;20102;-64
2023/07/07 05:30:58;;;;;;;13.23;8.45;;;19.50;99.90;;;;;;4957192;28;20043;-65
2023/07/07 05:33:24;;;;;;;12.68;8.07;;;19.70;99.90;;;;;;4955639;29;20450;-65
2023/07/07 05:35:55;;;;;;;12.20;7.70;;;19.90;99.90;;;;;;4955927;29;20127;-65
2023/07/07 05:38:23;;;;;;;12.98;7.72;;;20.20;99.90;;;;;;4955619;29;20075;-65
2023/07/07 05:40:50;;;;;;;10.80;7.00;;;20.40;99.90;;;;;;4956610;28;20130;-65
2023/07/07 05:43:18;;;;;;;11.98;7.22;;;20.80;99.90;;;;;;4956916;28;20043;-65
2023/07/07 05:45:44;;;;;;;11.07;7.60;;;21.00;99.90;;;;;;4956717;28;20093;-64
2023/07/07 05:48:11;;;;;;;10.25;6.47;;;21.50;99.90;;;;;;4956462;28;20051;-64
2023/07/07 05:50:39;;;;;;;11.35;6.25;;;22.00;99.90;;;;;;4956539;28;20039;-63
2023/07/07 05:53:05;;;;;;;10.00;6.35;;;22.20;99.90;;;;;;4956817;28;20039;-64
2023/07/07 05:55:34;;;;;;;10.52;5.90;;;22.80;99.90;;;;;;4956687;28;20039;-64
2023/07/07 05:58:01;;;;;;;11.10;6.38;;;23.10;99.90;;;;;;4955353;29;20050;-64
2023/07/07 06:00:29;;;;;;;10.90;6.47;;;23.20;98.80;;;;;;4939060;29;20055;-63
2023/07/07 06:02:56;;;;;;;11.07;6.22;;;23.70;98.90;;;;;;4955252;29;20492;-64
2023/07/07 06:05:22;;;;;;;10.60;5.72;;;23.60;98.80;;;;;;4955512;28;20051;-64
2023/07/07 06:07:51;;;;;;;9.80;6.07;;;23.80;98.20;;;;;;4956497;28;20047;-65
2023/07/07 06:10:17;;;;;;;12.73;6.00;;;24.00;97.50;;;;;;4954969;29;20122;-64
2023/07/07 06:12:44;;;;;;;10.00;5.53;;;24.00;97.10;;;;;;4956346;28;20051;-65
2023/07/07 06:15:10;;;;;;;9.93;5.20;;;24.40;97.80;;;;;;4954767;29;20053;-64
2023/07/07 06:17:39;;;;;;;9.23;5.80;;;24.40;98.00;;;;;;4939484;29;20050;-65
2023/07/07 06:20:05;;;;;;;10.30;5.57;;;25.00;97.10;;;;;;4955926;28;20054;-65
2023/07/07 06:22:31;;;;;;;10.32;5.88;;;25.10;96.50;;;;;;4955912;28;20043;-64
2023/07/07 06:24:57;;;;;;;9.52;5.75;;;25.10;94.30;;;;;;4955906;28;20399;-64
2023/07/07 06:27:23;;;;;;;11.48;5.85;;;25.60;94.80;;;;;;4954568;29;20043;-65
2023/07/07 06:29:49;;;;;;;11.30;5.70;;;25.20;93.10;;;;;;4954657;29;20384;-64
2023/07/07 06:32:14;;;;;;;10.13;5.20;;;25.20;93.50;;;;;;4955874;28;20513;-65
2023/07/07 06:34:40;;;;;;;9.93;4.88;;;25.40;92.80;;;;;;4956014;28;20043;-64
2023/07/07 06:37:06;;;;;;;9.02;5.03;;;25.70;92.30;;;;;;4955764;28;20510;-64
2023/07/07 06:39:32;;;;;;;10.10;5.00;;;25.50;92.30;;;;;;4955646;28;20047;-65
2023/07/07 06:42:00;;;;;;;10.30;4.65;;;25.70;92.50;;;;;;4954685;29;20134;-65
2023/07/07 06:44:25;;;;;;;9.70;4.90;;;26.10;92.10;;;;;;4954402;29;20043;-65
2023/07/07 06:46:51;;;;;;;8.63;4.53;;;26.30;90.40;;;;;;4955574;28;20097;-65
2023/07/07 06:49:17;;;;;;;7.88;4.47;;;26.20;90.60;;;;;;4955782;28;20122;-65
2023/07/07 06:51:43;;;;;;;9.13;4.60;;;26.30;91.50;;;;;;4954638;29;20082;-65
2023/07/07 06:54:08;;;;;;;9.20;4.47;;;26.40;88.30;;;;;;4954433;29;20138;-64
2023/07/07 06:56:34;;;;;;;8.77;3.90;;;26.50;90.00;;;;;;4938446;29;20055;-65
2023/07/07 06:59:00;;;;;;;8.35;4.13;;;26.60;88.10;;;;;;4955393;28;20035;-64
2023/07/07 07:01:26;;;;;;;7.75;3.92;;;26.50;86.20;;;;;;4954044;29;20086;-64
2023/07/07 07:03:52;;;;;;;8.88;3.67;;;26.30;85.50;;;;;;4955225;28;20047;-65
2023/07/07 07:06:17;;;;;;;6.88;3.70;;;26.60;86.20;;;;;;4954041;29;20039;-65
2023/07/07 07:08:43;;;;;;;9.85;4.07;;;26.30;81.80;;;;;;4953988;29;20039;-64
2023/07/07 07:11:09;;;;;;;11.07;3.63;;;26.10;83.60;;;;;;4955470;28;20035;-65
2023/07/07 07:13:35;;;;;;;7.68;3.42;;;26.10;84.80;;;;;;4954004;29;20047;-64
2023/07/07 07:16:00;;;;;;;7.68;3.60;;;26.00;85.00;;;;;;4955086;28;20183;-65
2023/07/07 07:18:26;;;;;;;7.72;3.50;;;26.20;85.30;;;;;;4953484;29;20141;-64
2023/07/07 07:20:54;;;;;;;8.18;3.22;;;26.20;83.20;;;;;;4954981;28;20043;-64
2023/07/07 07:23:21;;;;;;;7.78;3.60;;;26.00;83.50;;;;;;4954837;28;20047;-65
2023/07/07 07:25:48;;;;;;;7.72;3.47;;;26.60;85.90;;;;;;4955413;28;20399;-65
2023/07/07 07:28:15;;;;;;;8.25;3.15;;;26.50;81.50;;;;;;4955063;28;20039;-66
2023/07/07 07:30:42;;;;;;;5.88;2.75;;;26.60;83.50;;;;;;4955101;28;20147;-65
2023/07/07 07:33:19;;;;;;;9.25;3.38;;;26.70;83.80;;;;;;4954951;28;20046;-65
2023/07/07 07:35:46;;;;;;;6.80;3.00;;;26.60;84.00;;;;;;4955005;28;20113;-66
2023/07/07 07:38:15;;;;;;;8.10;2.95;;;26.90;82.60;;;;;;4955102;28;20043;-65
2023/07/07 07:40:41;;;;;;;8.65;2.97;;;26.90;82.10;;;;;;4954820;28;20050;-65
2023/07/07 07:43:07;;;;;;;6.07;2.55;;;27.20;81.60;;;;;;4954774;28;20050;-65
2023/07/07 07:45:32;;;;;;;8.48;2.90;;;27.20;79.10;;;;;;4955210;28;20098;-65
2023/07/07 07:47:58;;;;;;;6.60;2.90;;;27.40;79.90;;;;;;4955060;28;20031;-65
2023/07/07 07:50:24;;;;;;;6.25;2.80;;;27.60;80.40;;;;;;4954779;28;20106;-65
2023/07/07 07:52:50;;;;;;;7.28;2.60;;;27.60;76.60;;;;;;4937834;29;20047;-64
2023/07/07 07:55:16;;;;;;;6.05;2.60;;;27.60;79.00;;;;;;4955079;28;20039;-64
2023/07/07 07:57:43;;;;;;;6.07;2.65;;;28.00;75.90;;;;;;4954989;28;20105;-65
2023/07/07 08:00:10;;;;;;;6.93;2.30;;;28.10;76.50;;;;;;4953294;29;20058;-64
2023/07/07 08:02:37;;;;;;;7.40;2.60;;;28.10;75.80;;;;;;4926728;28;20062;-65
2023/07/07 08:05:04;;;;;;;8.20;2.65;;;28.00;75.00;;;;;;4954895;28;20066;-64
2023/07/07 08:07:35;;;;;;;7.97;2.20;;;28.00;76.70;;;;;;4954931;28;20543;-65
2023/07/07 08:10:01;;;;;;;7.63;2.38;;;27.70;76.60;;;;;;4953390;29;20051;-65
2023/07/07 08:12:26;;;;;;;6.05;2.33;;;27.90;75.30;;;;;;4953356;29;20046;-64
2023/07/07 08:14:52;;;;;;;7.60;2.28;;;27.90;74.10;;;;;;4954848;28;20043;-65
2023/07/07 08:17:18;;;;;;;6.00;2.10;;;27.90;73.90;;;;;;4953392;29;20526;-65
2023/07/07 08:19:46;;;;;;;6.72;2.33;;;28.10;72.90;;;;;;4953378;29;20126;-65
2023/07/07 08:22:16;;;;;;;6.68;2.55;;;28.10;72.60;;;;;;4954842;28;20039;-64
2023/07/07 08:24:46;;;;;;;7.40;2.17;;;27.90;68.80;;;;;;4953613;29;20083;-64
2023/07/07 08:27:13;;;;;;;6.75;2.10;;;28.10;71.20;;;;;;4954799;28;20110;-64
2023/07/07 08:29:40;;;;;;;5.53;2.40;;;28.10;71.40;;;;;;4955588;28;20495;-64
2023/07/07 08:32:07;;;;;;;5.90;2.30;;;28.40;70.30;;;;;;4940810;29;20047;-64
2023/07/07 08:34:32;;;;;;;5.07;2.13;;;28.20;70.50;;;;;;4957759;28;20102;-64
2023/07/07 08:37:01;;;;;;;6.55;2.20;;;28.30;65.70;;;;;;4957870;28;20039;-64
2023/07/07 08:39:29;;;;;;;5.57;2.35;;;28.40;65.60;;;;;;4958120;28;20047;-65
2023/07/07 08:42:05;;;;;;;7.82;2.33;;;28.10;65.80;;;;;;4958077;28;20057;-65
2023/07/07 08:44:34;;;;;;;6.47;2.38;;;28.10;65.80;;;;;;4956557;29;20039;-64
2023/07/07 08:47:20;;;;;;;6.53;2.35;;;28.10;63.40;;;;;;4957564;28;20043;-64
2023/07/07 08:49:55;;;;;;;5.35;2.30;;;28.10;60.00;;;;;;4957971;28;20039;-64
2023/07/07 08:52:39;;;;;;;4.68;2.25;;;28.00;56.00;;;;;;4957840;28;20047;-64
2023/07/07 08:55:50;;;;;;;6.80;2.47;;;27.80;58.30;;;;;;4957590;28;20055;-64
2023/07/07 08:58:52;;;;;;;5.27;2.17;;;27.50;59.60;;;;;;4953648;29;20059;-64
2023/07/07 09:01:30;;;;;;;5.55;2.25;;;27.40;61.00;;;;;;4955994;29;20063;-64
2023/07/07 09:04:14;;;;;;;6.15;2.47;;;26.90;57.60;;;;;;4955967;29;20058;-64
2023/07/07 09:06:58;;;;;;;4.57;2.13;;;26.90;61.20;;;;;;4957665;28;20562;-64
2023/07/07 09:09:32;;;;;;;5.72;2.42;;;27.20;58.60;;;;;;4957329;28;20082;-64
2023/07/07 09:11:58;;;;;;;7.20;2.20;;;27.40;62.20;;;;;;4957246;28;20142;-64
2023/07/07 09:14:26;;;;;;;7.20;2.40;;;27.50;62.40;;;;;;4958016;28;20070;-64
2023/07/07 09:16:55;;;;;;;5.18;2.30;;;27.80;62.60;;;;;;4939996;29;20110;-65
2023/07/07 09:19:36;;;;;;;6.00;2.30;;;28.00;62.00;;;;;;4957146;28;20039;-65
2023/07/07 09:22:02;;;;;;;5.65;2.28;;;28.20;64.40;;;;;;4957076;28;20043;-64
2023/07/07 09:25:03;;;;;;;6.00;2.25;;;28.40;58.30;;;;;;4955685;29;20102;-64
2023/07/07 09:27:35;;;;;;;6.50;2.38;;;28.60;57.10;;;;;;4956912;28;20451;-65
2023/07/07 09:30:39;;;;;;;6.85;2.60;;;28.60;59.30;;;;;;4957239;28;20039;-65
2023/07/07 09:33:10;;;;;;;4.60;2.20;;;28.50;58.90;;;;;;4945040;28;20103;-64
2023/07/07 09:35:41;;;;;;;4.95;2.10;;;28.60;57.90;;;;;;4956846;28;20122;-64
2023/07/07 09:38:31;;;;;;;6.65;2.30;;;28.60;58.30;;;;;;4957132;28;20065;-65
2023/07/07 09:41:32;;;;;;;5.80;2.40;;;28.40;57.80;;;;;;4955418;28;20044;-66
2023/07/07 09:44:16;;;;;;;6.07;2.28;;;28.30;60.00;;;;;;4956802;28;20504;-65
2023/07/07 09:47:21;;;;;;;5.53;2.33;;;28.40;58.80;;;;;;4956933;28;20446;-65
2023/07/07 09:49:58;;;;;;;7.03;2.40;;;28.60;57.90;;;;;;4952464;29;20062;-65
2023/07/07 09:52:33;;;;;;;6.85;2.65;;;28.60;56.10;;;;;;4956838;28;20368;-66
2023/07/07 09:55:01;;;;;;;5.40;2.30;;;28.70;56.90;;;;;;4939514;29;20400;-66
2023/07/07 09:57:34;;;;;;;5.20;2.30;;;28.60;57.40;;;;;;4955401;29;20476;-64
2023/07/07 10:00:02;;;;;;;5.72;2.40;;;28.40;55.00;;;;;;4956271;28;20113;-64
2023/07/07 10:02:29;;;;;;;5.35;2.47;;;28.40;59.10;;;;;;4939014;29;20055;-65
2023/07/07 10:04:59;;;;;;;5.50;2.40;;;28.50;58.10;;;;;;4956247;28;20040;-65
2023/07/07 10:07:43;;;;;;;5.75;2.40;;;28.60;58.60;;;;;;4955064;29;20043;-65
2023/07/07 10:10:13;;;;;;;5.25;2.25;;;28.40;53.00;;;;;;4954870;29;20551;-65
2023/07/07 10:12:40;;;;;;;6.10;2.38;;;28.20;54.70;;;;;;4956423;28;20056;-65
2023/07/07 10:16:21;;;;;;;5.55;2.40;;;27.90;56.00;;;;;;4954905;29;20043;-65
2023/07/07 10:18:47;;;;;;;6.63;2.30;;;27.80;56.00;;;;;;4879033;29;20137;-65
2023/07/07 10:21:15;;;;;;;5.78;2.30;;;27.80;53.50;;;;;;4896926;29;20125;-64
2023/07/07 10:23:41;;;;;;;6.53;2.45;;;27.90;58.10;;;;;;4915670;29;20133;-65
2023/07/07 10:26:07;;;;;;;6.15;2.45;;;28.20;57.30;;;;;;4955854;28;20047;-65
2023/07/07 10:28:33;;;;;;;5.82;2.45;;;28.30;56.10;;;;;;4956197;28;20102;-64
2023/07/07 10:31:00;;;;;;;6.70;2.50;;;28.30;55.90;;;;;;4955727;28;20082;-64
2023/07/07 10:33:26;;;;;;;5.20;2.25;;;27.90;53.60;;;;;;4954863;29;20088;-64
2023/07/07 10:35:52;;;;;;;6.35;2.42;;;28.00;56.70;;;;;;4954560;29;20074;-64
2023/07/07 10:38:18;;;;;;;5.68;2.42;;;28.10;55.50;;;;;;4955717;28;20046;-64
2023/07/07 10:40:45;;;;;;;6.03;2.40;;;28.10;57.80;;;;;;4954656;29;20395;-65
2023/07/07 10:43:15;;;;;;;6.10;2.70;;;27.90;54.70;;;;;;4954729;29;20082;-64
2023/07/07 10:45:45;;;;;;;6.07;2.30;;;27.80;54.90;;;;;;4955918;28;20541;-65
2023/07/07 10:48:13;;;;;;;7.70;2.53;;;28.00;53.60;;;;;;4954570;29;20110;-66
2023/07/07 10:51:11;;;;;;;6.30;2.42;;;28.10;55.30;;;;;;4954579;29;20476;-65
2023/07/07 10:54:00;;;;;;;6.13;2.55;;;28.40;56.40;;;;;;4948910;29;20354;-64
2023/07/07 10:56:33;;;;;;;6.20;2.50;;;28.70;57.20;;;;;;4955731;28;20531;-65
2023/07/07 10:59:17;;;;;;;6.40;2.30;;;28.60;56.50;;;;;;4954073;29;20102;-65
2023/07/07 11:01:48;;;;;;;5.43;2.70;;;28.70;55.80;;;;;;4955249;28;20055;-66
2023/07/07 11:04:24;;;;;;;5.35;2.40;;;28.30;51.90;;;;;;4955529;28;20058;-65
2023/07/07 11:06:59;;;;;;;5.03;2.45;;;28.30;51.60;;;;;;4955496;28;20050;-65
2023/07/07 11:09:50;;;;;;;7.18;2.67;;;28.30;54.00;;;;;;4938409;29;20074;-65
2023/07/07 11:12:40;;;;;;;6.30;2.50;;;28.20;51.30;;;;;;4937995;29;20047;-65
2023/07/07 11:15:30;;;;;;;6.13;2.30;;;28.00;51.90;;;;;;4955160;28;20119;-65
2023/07/07 11:17:56;;;;;;;4.97;2.28;;;28.40;53.30;;;;;;4955213;28;20043;-64
2023/07/07 11:20:49;;;;;;;5.28;2.60;;;28.70;54.50;;;;;;4955042;28;20452;-65
2023/07/07 11:23:24;;;;;;;6.35;2.50;;;28.70;50.20;;;;;;4955334;28;20047;-66
2023/07/07 11:26:11;;;;;;;5.38;2.30;;;28.40;49.20;;;;;;4954074;29;20483;-64
2023/07/07 11:29:02;;;;;;;5.53;2.30;;;28.40;49.20;;;;;;4954920;28;20050;-64
2023/07/07 11:31:36;;;;;;;4.93;2.22;;;28.40;50.60;;;;;;4955102;28;20035;-65
2023/07/07 11:34:28;;;;;;;5.38;2.22;;;28.40;48.30;;;;;;4955009;28;20062;-65
2023/07/07 11:37:21;;;;;;;5.68;2.35;;;28.50;46.20;;;;;;4937973;29;20555;-65
2023/07/07 11:40:06;;;;;;;5.55;2.50;;;28.50;50.00;;;;;;4955227;28;20050;-65
2023/07/07 11:42:49;;;;;;;5.35;2.20;;;28.20;49.30;;;;;;4937864;29;20507;-65
2023/07/07 11:45:20;;;;;;;5.10;2.30;;;28.30;49.20;;;;;;4955115;28;20558;-64
2023/07/07 11:47:58;;;;;;;5.57;2.33;;;28.30;48.90;;;;;;4953675;29;20047;-65
2023/07/07 11:50:39;;;;;;;5.45;2.50;;;28.40;47.70;;;;;;4954871;28;20074;-65
2023/07/07 11:53:22;;;;;;;6.88;2.20;;;28.50;49.80;;;;;;4953617;29;20043;-65
2023/07/07 11:56:13;;;;;;;5.97;2.50;;;28.40;46.40;;;;;;4955097;28;20044;-65
2023/07/07 11:58:53;;;;;;;5.00;2.50;;;28.20;48.60;;;;;;4954859;28;20492;-66
2023/07/07 12:01:31;;;;;;;6.28;2.40;;;27.90;47.90;;;;;;4953342;29;20508;-66
2023/07/07 12:04:21;;;;;;;5.18;2.40;;;28.00;50.30;;;;;;4955579;28;20118;-67
2023/07/07 12:06:52;;;;;;;4.63;2.20;;;27.90;48.20;;;;;;4957200;29;20050;-68
2023/07/07 12:09:20;;;;;;;5.95;2.42;;;28.10;45.90;;;;;;4958769;28;20043;-66
2023/07/07 12:12:04;;;;;;;5.93;2.50;;;28.20;49.10;;;;;;4958728;28;20035;-65
2023/07/07 12:14:49;;;;;;;5.30;2.15;;;28.40;50.00;;;;;;4957001;29;20047;-66
2023/07/07 12:17:33;;;;;;;5.85;2.30;;;28.60;48.40;;;;;;4957086;29;20039;-65
2023/07/07 12:20:08;;;;;;;6.38;2.60;;;28.70;48.00;;;;;;4956880;29;20051;-66
2023/07/07 12:22:40;;;;;;;5.80;2.25;;;28.70;47.10;;;;;;4958381;28;20082;-64
2023/07/07 12:25:25;;;;;;;5.18;2.60;;;28.60;47.00;;;;;;4957215;29;20046;-65
2023/07/07 12:27:53;;;;;;;5.80;2.60;;;28.50;44.40;;;;;;4957001;29;20039;-65
2023/07/07 12:30:25;;;;;;;4.78;2.30;;;28.40;44.50;;;;;;4956936;29;20131;-65
2023/07/07 12:32:52;;;;;;;4.88;2.53;;;28.40;44.70;;;;;;4958321;28;20105;-65
2023/07/07 12:35:26;;;;;;;4.88;2.38;;;28.30;43.00;;;;;;4958255;28;20090;-66
2023/07/07 12:37:55;;;;;;;4.85;2.53;;;28.40;45.90;;;;;;4941029;29;20051;-65
2023/07/07 12:40:21;;;;;;;6.18;2.55;;;28.30;41.90;;;;;;4957799;28;20082;-65
2023/07/07 12:42:58;;;;;;;6.07;2.30;;;28.10;43.10;;;;;;4940856;29;20058;-65
2023/07/07 12:45:34;;;;;;;5.30;2.45;;;28.20;46.10;;;;;;4957779;28;20089;-65
2023/07/07 12:48:06;;;;;;;5.82;2.50;;;28.00;43.90;;;;;;4940925;29;20080;-66
2023/07/07 12:50:38;;;;;;;5.70;2.47;;;28.10;44.80;;;;;;4956334;29;20051;-66
2023/07/07 12:53:10;;;;;;;5.72;2.45;;;28.10;43.70;;;;;;4957970;28;20047;-65
2023/07/07 12:55:57;;;;;;;5.43;2.50;;;28.10;43.50;;;;;;4957516;28;20047;-65
2023/07/07 12:58:40;;;;;;;5.53;2.35;;;28.20;46.20;;;;;;4957761;29;20123;-65
2023/07/07 13:01:06;;;;;;;5.40;2.30;;;28.30;45.50;;;;;;4956075;29;20091;-65